sensor_id;sensor_type;location;lat;lon;timestamp;pressure;altitude;pressure_sealevel;temperature;humidity
8697;BME280;4385;48.848;8.924;2023-02-04T00:00:18;98612.94;;;17.07;100.00
8697;BME280;4385;48.848;8.924;2023-02-04T00:02:44;98611.22;;;17.05;100.00
8697;BME280;4385;48.848;8.924;2023-02-04T00:05:11;98605.25;;;17.04;100.00
8697;BME280;4385;48.848;8.924;2023-02-04T00:07:37;98617.13;;;17.02;100.00
8697;BME280;4385;48.848;8.924;2023-02-04T00:10:04;98617.13;;;17.02;100.00
8697;BME280;4385;48.848;8.924;2023-02-04T00:12:30;98625.63;;;17.01;100.00
8697;BME280;4385;48.848;8.924;2023-02-04T00:14:55;98611.22;;;17.00;100.00
8697;BME280;4385;48.848;8.924;2023-02-04T00:17:21;98605.25;;;17.00;100.00
8697;BME280;4385;48.848;8.924;2023-02-04T00:19:46;98612.03;;;16.99;100.00
8697;BME280;4385;48.848;8.924;2023-02-04T00:22:11;98607.81;;;17.00;100.00
8697;BME280;4385;48.848;8.924;2023-02-04T00:24:37;98612.03;;;16.99;100.00
8697;BME280;4385;48.848;8.924;2023-02-04T00:27:04;98610.34;;;17.01;100.00
8697;BME280;4385;48.848;8.924;2023-02-04T00:29:29;98606.94;;;17.02;100.00
8697;BME280;4385;48.848;8.924;2023-02-04T00:31:55;98614.59;;;17.04;100.00
8697;BME280;4385;48.848;8.924;2023-02-04T00:34:21;98624.78;;;17.05;100.00
8697;BME280;4385;48.848;8.924;2023-02-04T00:36:46;98625.66;;;17.07;100.00
8697;BME280;4385;48.848;8.924;2023-02-04T00:39:11;98632.47;;;17.10;100.00
8697;BME280;4385;48.848;8.924;2023-02-04T00:41:36;98629.09;;;17.10;100.00
8697;BME280;4385;48.848;8.924;2023-02-04T00:44:02;98623.97;;;17.10;100.00
8697;BME280;4385;48.848;8.924;2023-02-04T00:46:27;98627.34;;;17.08;100.00
8697;BME280;4385;48.848;8.924;2023-02-04T00:48:52;98623.97;;;17.10;100.00
8697;BME280;4385;48.848;8.924;2023-02-04T00:51:18;98630.75;;;17.07;100.00
8697;BME280;4385;48.848;8.924;2023-02-04T00:53:43;98626.50;;;17.06;100.00
8697;BME280;4385;48.848;8.924;2023-02-04T00:56:08;98618.00;;;17.04;100.00
8697;BME280;4385;48.848;8.924;2023-02-04T00:58:33;98632.41;;;17.02;100.00
8697;BME280;4385;48.848;8.924;2023-02-04T01:00:59;98635.81;;;17.01;100.00
8697;BME280;4385;48.848;8.924;2023-02-04T01:03:24;98642.59;;;16.99;100.00
8697;BME280;4385;48.848;8.924;2023-02-04T01:05:49;98630.72;;;16.98;100.00
8697;BME280;4385;48.848;8.924;2023-02-04T01:08:15;98644.31;;;16.97;100.00
8697;BME280;4385;48.848;8.924;2023-02-04T01:10:40;98642.59;;;16.96;100.00
8697;BME280;4385;48.848;8.924;2023-02-04T01:13:05;98639.22;;;16.97;100.00
8697;BME280;4385;48.848;8.924;2023-02-04T01:15:33;98644.31;;;16.97;100.00
8697;BME280;4385;48.848;8.924;2023-02-04T01:17:58;98652.78;;;16.99;100.00
8697;BME280;4385;48.848;8.924;2023-02-04T01:20:23;98649.41;;;17.02;100.00
8697;BME280;4385;48.848;8.924;2023-02-04T01:22:49;98652.78;;;17.02;100.00
8697;BME280;4385;48.848;8.924;2023-02-04T01:25:14;98656.19;;;17.04;100.00
8697;BME280;4385;48.848;8.924;2023-02-04T01:27:39;98657.88;;;17.05;100.00
8697;BME280;4385;48.848;8.924;2023-02-04T01:30:05;98667.25;;;17.06;100.00
8697;BME280;4385;48.848;8.924;2023-02-04T01:32:30;98673.19;;;17.08;100.00
8697;BME280;4385;48.848;8.924;2023-02-04T01:34:56;98669.84;;;17.10;100.00
8697;BME280;4385;48.848;8.924;2023-02-04T01:37:21;98666.44;;;17.12;100.00
8697;BME280;4385;48.848;8.924;2023-02-04T01:39:46;98673.22;;;17.12;100.00
8697;BME280;4385;48.848;8.924;2023-02-04T01:42:12;98680.03;;;17.13;100.00
8697;BME280;4385;48.848;8.924;2023-02-04T01:44:37;98677.47;;;17.13;100.00
8697;BME280;4385;48.848;8.924;2023-02-04T01:47:03;98673.22;;;17.12;100.00
8697;BME280;4385;48.848;8.924;2023-02-04T01:49:29;98678.31;;;17.12;100.00
8697;BME280;4385;48.848;8.924;2023-02-04T01:51:55;98677.47;;;17.11;100.00
8697;BME280;4385;48.848;8.924;2023-02-04T01:54:20;98668.97;;;17.11;100.00
8697;BME280;4385;48.848;8.924;2023-02-04T01:56:46;98685.13;;;17.10;100.00
8697;BME280;4385;48.848;8.924;2023-02-04T01:59:15;98678.28;;;17.08;100.00
8697;BME280;4385;48.848;8.924;2023-02-04T02:01:53;98684.22;;;17.06;100.00
8697;BME280;4385;48.848;8.924;2023-02-04T02:04:29;98676.56;;;17.04;100.00
8697;BME280;4385;48.848;8.924;2023-02-04T02:06:57;98679.97;;;17.03;100.00
8697;BME280;4385;48.848;8.924;2023-02-04T02:09:26;98668.06;;;17.02;100.00
8697;BME280;4385;48.848;8.924;2023-02-04T02:11:52;98678.25;;;17.02;100.00
8697;BME280;4385;48.848;8.924;2023-02-04T02:14:17;98678.25;;;17.02;100.00
8697;BME280;4385;48.848;8.924;2023-02-04T02:16:43;98671.47;;;17.01;100.00
8697;BME280;4385;48.848;8.924;2023-02-04T02:19:12;98679.13;;;17.04;100.00
8697;BME280;4385;48.848;8.924;2023-02-04T02:21:56;98683.34;;;17.05;100.00
8697;BME280;4385;48.848;8.924;2023-02-04T02:24:32;98682.53;;;17.06;100.00
8697;BME280;4385;48.848;8.924;2023-02-04T02:27:02;98677.47;;;17.08;100.00
8697;BME280;4385;48.848;8.924;2023-02-04T02:29:28;98678.31;;;17.10;100.00
8697;BME280;4385;48.848;8.924;2023-02-04T02:31:54;98683.41;;;17.12;100.00
8697;BME280;4385;48.848;8.924;2023-02-04T02:34:22;98681.72;;;17.14;100.00
8697;BME280;4385;48.848;8.924;2023-02-04T02:36:47;98685.13;;;17.14;100.00
8697;BME280;4385;48.848;8.924;2023-02-04T02:39:13;98678.31;;;17.15;100.00
8697;BME280;4385;48.848;8.924;2023-02-04T02:41:38;98683.41;;;17.15;100.00
8697;BME280;4385;48.848;8.924;2023-02-04T02:44:04;98702.09;;;17.14;100.00
8697;BME280;4385;48.848;8.924;2023-02-04T02:46:30;98707.19;;;17.14;100.00
8697;BME280;4385;48.848;8.924;2023-02-04T02:48:55;98707.19;;;17.14;100.00
8697;BME280;4385;48.848;8.924;2023-02-04T02:51:20;98704.63;;;17.14;100.00
8697;BME280;4385;48.848;8.924;2023-02-04T02:53:48;98691.91;;;17.12;100.00
8697;BME280;4385;48.848;8.924;2023-02-04T02:56:14;98685.94;;;17.10;100.00
8697;BME280;4385;48.848;8.924;2023-02-04T02:58:39;98697.84;;;17.08;100.00
8697;BME280;4385;48.848;8.924;2023-02-04T03:01:06;98695.25;;;17.06;100.00
8697;BME280;4385;48.848;8.924;2023-02-04T03:03:35;98698.63;;;17.05;100.00
8697;BME280;4385;48.848;8.924;2023-02-04T03:06:14;98700.34;;;17.05;100.00
8697;BME280;4385;48.848;8.924;2023-02-04T03:08:40;98696.94;;;17.04;100.00
8697;BME280;4385;48.848;8.924;2023-02-04T03:11:06;98696.09;;;17.04;100.00
8697;BME280;4385;48.848;8.924;2023-02-04T03:13:32;98690.97;;;17.04;100.00
8697;BME280;4385;48.848;8.924;2023-02-04T03:15:58;98692.72;;;17.05;100.00
8697;BME280;4385;48.848;8.924;2023-02-04T03:18:24;98698.66;;;17.08;100.00
8697;BME280;4385;48.848;8.924;2023-02-04T03:20:50;98710.59;;;17.10;100.00
8697;BME280;4385;48.848;8.924;2023-02-04T03:23:16;98713.13;;;17.10;100.00
8697;BME280;4385;48.848;8.924;2023-02-04T03:25:42;98712.28;;;17.11;100.00
8697;BME280;4385;48.848;8.924;2023-02-04T03:28:08;98723.31;;;17.11;100.00
8697;BME280;4385;48.848;8.924;2023-02-04T03:30:33;98739.44;;;17.12;100.00
8697;BME280;4385;48.848;8.924;2023-02-04T03:32:58;98750.47;;;17.11;100.00
8697;BME280;4385;48.848;8.924;2023-02-04T03:35:24;98751.34;;;17.10;100.00
8697;BME280;4385;48.848;8.924;2023-02-04T03:37:49;98757.25;;;17.08;100.00
8697;BME280;4385;48.848;8.924;2023-02-04T03:40:15;98758.97;;;17.08;100.00
8697;BME280;4385;48.848;8.924;2023-02-04T03:42:40;98765.72;;;17.06;100.00
8697;BME280;4385;48.848;8.924;2023-02-04T03:45:05;98761.47;;;17.05;100.00
8697;BME280;4385;48.848;8.924;2023-02-04T03:47:31;98771.66;;;17.05;100.00
8697;BME280;4385;48.848;8.924;2023-02-04T03:49:57;98775.03;;;17.04;100.00
8697;BME280;4385;48.848;8.924;2023-02-04T03:52:22;98780.97;;;17.03;100.00
8697;BME280;4385;48.848;8.924;2023-02-04T03:54:47;98779.28;;;17.02;100.00
8697;BME280;4385;48.848;8.924;2023-02-04T03:57:13;98773.31;;;16.98;100.00
8697;BME280;4385;48.848;8.924;2023-02-04T03:59:40;98778.41;;;16.97;100.00
8697;BME280;4385;48.848;8.924;2023-02-04T04:02:05;98786.88;;;16.94;100.00
8697;BME280;4385;48.848;8.924;2023-02-04T04:04:30;98786.88;;;16.94;100.00
8697;BME280;4385;48.848;8.924;2023-02-04T04:06:56;98777.53;;;16.93;100.00
8697;BME280;4385;48.848;8.924;2023-02-04T04:09:21;98786.03;;;16.93;100.00
8697;BME280;4385;48.848;8.924;2023-02-04T04:11:46;98780.06;;;16.93;100.00
8697;BME280;4385;48.848;8.924;2023-02-04T04:14:11;98786.88;;;16.94;100.00
8697;BME280;4385;48.848;8.924;2023-02-04T04:16:37;98789.44;;;16.95;100.00
8697;BME280;4385;48.848;8.924;2023-02-04T04:19:03;98789.44;;;16.95;100.00
8697;BME280;4385;48.848;8.924;2023-02-04T04:21:29;98793.69;;;16.98;100.00
8697;BME280;4385;48.848;8.924;2023-02-04T04:23:54;98799.66;;;16.99;100.00
8697;BME280;4385;48.848;8.924;2023-02-04T04:26:20;98790.28;;;16.99;100.00
8697;BME280;4385;48.848;8.924;2023-02-04T04:28:45;98798.78;;;16.98;100.00
8697;BME280;4385;48.848;8.924;2023-02-04T04:31:10;98792.00;;;16.97;100.00
8697;BME280;4385;48.848;8.924;2023-02-04T04:33:36;98795.38;;;16.98;100.00
8697;BME280;4385;48.848;8.924;2023-02-04T04:36:01;98788.59;;;16.98;100.00
8697;BME280;4385;48.848;8.924;2023-02-04T04:38:26;98794.56;;;16.99;100.00
8697;BME280;4385;48.848;8.924;2023-02-04T04:40:52;98795.38;;;16.99;100.00
8697;BME280;4385;48.848;8.924;2023-02-04T04:43:17;98797.91;;;16.96;100.00
8697;BME280;4385;48.848;8.924;2023-02-04T04:45:42;98803.88;;;16.98;100.00
8697;BME280;4385;48.848;8.924;2023-02-04T04:48:08;98806.41;;;16.98;100.00
8697;BME280;4385;48.848;8.924;2023-02-04T04:50:33;98810.66;;;16.96;100.00
8697;BME280;4385;48.848;8.924;2023-02-04T04:52:58;98801.31;;;16.93;100.00
8697;BME280;4385;48.848;8.924;2023-02-04T04:55:23;98801.31;;;16.92;100.00
8697;BME280;4385;48.848;8.924;2023-02-04T04:57:49;98807.25;;;16.91;100.00
8697;BME280;4385;48.848;8.924;2023-02-04T05:00:17;98809.78;;;16.89;100.00
8697;BME280;4385;48.848;8.924;2023-02-04T05:02:43;98811.47;;;16.90;100.00
8697;BME280;4385;48.848;8.924;2023-02-04T05:05:09;98811.47;;;16.90;100.00
8697;BME280;4385;48.848;8.924;2023-02-04T05:07:34;98815.72;;;16.90;100.00
8697;BME280;4385;48.848;8.924;2023-02-04T05:09:59;98811.47;;;16.90;100.00
8697;BME280;4385;48.848;8.924;2023-02-04T05:12:25;98817.44;;;16.91;100.00
8697;BME280;4385;48.848;8.924;2023-02-04T05:14:50;98810.63;;;16.90;100.00
8697;BME280;4385;48.848;8.924;2023-02-04T05:17:15;98812.34;;;16.91;100.00
8697;BME280;4385;48.848;8.924;2023-02-04T05:19:40;98818.25;;;16.91;100.00
8697;BME280;4385;48.848;8.924;2023-02-04T05:22:06;98816.56;;;16.90;100.00
8697;BME280;4385;48.848;8.924;2023-02-04T05:24:31;98810.63;;;16.93;100.00
8697;BME280;4385;48.848;8.924;2023-02-04T05:26:56;98815.72;;;16.93;100.00
8697;BME280;4385;48.848;8.924;2023-02-04T05:29:22;98821.69;;;16.93;100.00
8697;BME280;4385;48.848;8.924;2023-02-04T05:31:47;98820.81;;;16.93;100.00
8697;BME280;4385;48.848;8.924;2023-02-04T05:34:12;98833.56;;;16.96;100.00
8697;BME280;4385;48.848;8.924;2023-02-04T05:36:37;98826.78;;;16.97;100.00
8697;BME280;4385;48.848;8.924;2023-02-04T05:39:03;98836.09;;;16.96;100.00
8697;BME280;4385;48.848;8.924;2023-02-04T05:41:28;98831.88;;;16.97;100.00
8697;BME280;4385;48.848;8.924;2023-02-04T05:43:53;98828.47;;;16.96;100.00
8697;BME280;4385;48.848;8.924;2023-02-04T05:46:18;98831.88;;;16.98;100.00
8697;BME280;4385;48.848;8.924;2023-02-04T05:48:44;98831.88;;;16.95;100.00
8697;BME280;4385;48.848;8.924;2023-02-04T05:51:09;98831.88;;;16.97;100.00
8697;BME280;4385;48.848;8.924;2023-02-04T05:53:34;98834.41;;;16.95;100.00
8697;BME280;4385;48.848;8.924;2023-02-04T05:56:00;98837.81;;;16.95;100.00
8697;BME280;4385;48.848;8.924;2023-02-04T05:58:25;98836.94;;;16.93;100.00
8697;BME280;4385;48.848;8.924;2023-02-04T06:00:57;98849.66;;;16.90;100.00
8697;BME280;4385;48.848;8.924;2023-02-04T06:03:22;98852.19;;;16.89;100.00
8697;BME280;4385;48.848;8.924;2023-02-04T06:05:47;98865.81;;;16.91;100.00
8697;BME280;4385;48.848;8.924;2023-02-04T06:08:13;98864.09;;;16.91;100.00
8697;BME280;4385;48.848;8.924;2023-02-04T06:10:40;98869.19;;;16.93;100.00
8697;BME280;4385;48.848;8.924;2023-02-04T06:13:05;98875.16;;;16.95;100.00
8697;BME280;4385;48.848;8.924;2023-02-04T06:15:30;98877.72;;;16.97;100.00
8697;BME280;4385;48.848;8.924;2023-02-04T06:17:55;98878.59;;;17.00;100.00
8697;BME280;4385;48.848;8.924;2023-02-04T06:20:22;98884.53;;;17.04;100.00
8697;BME280;4385;48.848;8.924;2023-02-04T06:22:47;98876.97;;;17.08;100.00
8697;BME280;4385;48.848;8.924;2023-02-04T06:25:16;98884.63;;;17.13;100.00
8697;BME280;4385;48.848;8.924;2023-02-04T06:27:41;98885.50;;;17.17;100.00
8697;BME280;4385;48.848;8.924;2023-02-04T06:30:07;98901.69;;;17.22;100.00
8697;BME280;4385;48.848;8.924;2023-02-04T06:32:32;98901.69;;;17.27;100.00
8697;BME280;4385;48.848;8.924;2023-02-04T06:34:58;98903.41;;;17.31;100.00
8697;BME280;4385;48.848;8.924;2023-02-04T06:37:23;98908.53;;;17.34;100.00
8697;BME280;4385;48.848;8.924;2023-02-04T06:39:48;98905.13;;;17.35;100.00
8697;BME280;4385;48.848;8.924;2023-02-04T06:42:13;98902.56;;;17.37;100.00
8697;BME280;4385;48.848;8.924;2023-02-04T06:44:39;98906.84;;;17.36;100.00
8697;BME280;4385;48.848;8.924;2023-02-04T06:47:04;98912.78;;;17.37;100.00
8697;BME280;4385;48.848;8.924;2023-02-04T06:49:29;98917.03;;;17.35;100.00
8697;BME280;4385;48.848;8.924;2023-02-04T06:51:55;98912.75;;;17.33;100.00
8697;BME280;4385;48.848;8.924;2023-02-04T06:54:20;98915.28;;;17.32;100.00
8697;BME280;4385;48.848;8.924;2023-02-04T06:56:45;98923.78;;;17.31;100.00
8697;BME280;4385;48.848;8.924;2023-02-04T06:59:11;98929.72;;;17.28;100.00
8697;BME280;4385;48.848;8.924;2023-02-04T07:01:36;98933.09;;;17.27;100.00
8697;BME280;4385;48.848;8.924;2023-02-04T07:04:01;98932.28;;;17.27;100.00
8697;BME280;4385;48.848;8.924;2023-02-04T07:06:26;98922.91;;;17.26;100.00
8697;BME280;4385;48.848;8.924;2023-02-04T07:08:52;98925.44;;;17.24;100.00
8697;BME280;4385;48.848;8.924;2023-02-04T07:11:17;98933.94;;;17.23;100.00
8697;BME280;4385;48.848;8.924;2023-02-04T07:13:42;98937.34;;;17.24;100.00
8697;BME280;4385;48.848;8.924;2023-02-04T07:16:08;98939.88;;;17.22;100.00
8697;BME280;4385;48.848;8.924;2023-02-04T07:18:33;98940.72;;;17.23;100.00
8697;BME280;4385;48.848;8.924;2023-02-04T07:20:58;98945.81;;;17.23;100.00
8697;BME280;4385;48.848;8.924;2023-02-04T07:23:24;98956.88;;;17.23;100.00
8697;BME280;4385;48.848;8.924;2023-02-04T07:25:53;98960.28;;;17.25;100.00
8697;BME280;4385;48.848;8.924;2023-02-04T07:28:20;98961.13;;;17.26;100.00
8697;BME280;4385;48.848;8.924;2023-02-04T07:30:45;98969.63;;;17.28;100.00
8697;BME280;4385;48.848;8.924;2023-02-04T07:33:10;98968.78;;;17.29;100.00
8697;BME280;4385;48.848;8.924;2023-02-04T07:35:36;98961.13;;;17.29;100.00
8697;BME280;4385;48.848;8.924;2023-02-04T07:38:04;98962.88;;;17.30;100.00
8697;BME280;4385;48.848;8.924;2023-02-04T07:40:29;98959.47;;;17.31;100.00
8697;BME280;4385;48.848;8.924;2023-02-04T07:42:55;98964.56;;;17.29;100.00
8697;BME280;4385;48.848;8.924;2023-02-04T07:45:20;98967.97;;;17.30;100.00
8697;BME280;4385;48.848;8.924;2023-02-04T07:47:45;98966.22;;;17.29;100.00
8697;BME280;4385;48.848;8.924;2023-02-04T07:50:10;98979.81;;;17.28;100.00
8697;BME280;4385;48.848;8.924;2023-02-04T07:52:36;98981.50;;;17.26;100.00
8697;BME280;4385;48.848;8.924;2023-02-04T07:55:01;98983.22;;;17.24;100.00
8697;BME280;4385;48.848;8.924;2023-02-04T07:57:26;98984.03;;;17.21;100.00
8697;BME280;4385;48.848;8.924;2023-02-04T07:59:53;98989.97;;;17.18;100.00
8697;BME280;4385;48.848;8.924;2023-02-04T08:02:18;98996.72;;;17.16;100.00
8697;BME280;4385;48.848;8.924;2023-02-04T08:04:43;98994.16;;;17.15;100.00
8697;BME280;4385;48.848;8.924;2023-02-04T08:07:09;98992.47;;;17.12;100.00
8697;BME280;4385;48.848;8.924;2023-02-04T08:09:34;99004.34;;;17.12;100.00
8697;BME280;4385;48.848;8.924;2023-02-04T08:11:59;99001.78;;;17.12;100.00
8697;BME280;4385;48.848;8.924;2023-02-04T08:14:24;99009.44;;;17.12;100.00
8697;BME280;4385;48.848;8.924;2023-02-04T08:16:50;99012.84;;;17.14;100.00
8697;BME280;4385;48.848;8.924;2023-02-04T08:19:15;99010.31;;;17.14;100.00
8697;BME280;4385;48.848;8.924;2023-02-04T08:21:44;99012.00;;;17.15;100.00
8697;BME280;4385;48.848;8.924;2023-02-04T08:24:10;99017.97;;;17.17;100.00
8697;BME280;4385;48.848;8.924;2023-02-04T08:26:36;99012.88;;;17.17;100.00
8697;BME280;4385;48.848;8.924;2023-02-04T08:29:01;99022.22;;;17.18;100.00
8697;BME280;4385;48.848;8.924;2023-02-04T08:31:27;99024.78;;;17.19;100.00
8697;BME280;4385;48.848;8.924;2023-02-04T08:33:52;99021.41;;;17.22;100.00
8697;BME280;4385;48.848;8.924;2023-02-04T08:36:18;99028.22;;;17.25;100.00
8697;BME280;4385;48.848;8.924;2023-02-04T08:38:43;99023.13;;;17.26;100.00
8697;BME280;4385;48.848;8.924;2023-02-04T08:41:09;99027.38;;;17.27;100.00
8697;BME280;4385;48.848;8.924;2023-02-04T08:43:34;99025.69;;;17.26;100.00
8697;BME280;4385;48.848;8.924;2023-02-04T08:46:01;99024.81;;;17.27;100.00
8697;BME280;4385;48.848;8.924;2023-02-04T08:48:26;99027.38;;;17.26;100.00
8697;BME280;4385;48.848;8.924;2023-02-04T08:50:51;99034.19;;;17.25;100.00
8697;BME280;4385;48.848;8.924;2023-02-04T08:53:16;99031.59;;;17.22;100.00
8697;BME280;4385;48.848;8.924;2023-02-04T08:55:42;99040.91;;;17.20;100.00
8697;BME280;4385;48.848;8.924;2023-02-04T08:58:07;99049.41;;;17.19;100.00
8697;BME280;4385;48.848;8.924;2023-02-04T09:00:32;99051.09;;;17.18;100.00
8697;BME280;4385;48.848;8.924;2023-02-04T09:02:58;99059.59;;;17.16;100.00
8697;BME280;4385;48.848;8.924;2023-02-04T09:05:23;99057.84;;;17.15;100.00
8697;BME280;4385;48.848;8.924;2023-02-04T09:07:48;99062.09;;;17.13;100.00
8697;BME280;4385;48.848;8.924;2023-02-04T09:10:14;99065.47;;;17.12;100.00
8697;BME280;4385;48.848;8.924;2023-02-04T09:12:39;99063.78;;;17.14;100.00
8697;BME280;4385;48.848;8.924;2023-02-04T09:15:06;99062.94;;;17.15;100.00
8697;BME280;4385;48.848;8.924;2023-02-04T09:17:31;99068.91;;;17.14;100.00
8697;BME280;4385;48.848;8.924;2023-02-04T09:19:57;99065.50;;;17.15;100.00
8697;BME280;4385;48.848;8.924;2023-02-04T09:22:23;99067.22;;;17.16;100.00
8697;BME280;4385;48.848;8.924;2023-02-04T09:24:48;99063.81;;;17.17;100.00
8697;BME280;4385;48.848;8.924;2023-02-04T09:27:13;99074.03;;;17.18;100.00
8697;BME280;4385;48.848;8.924;2023-02-04T09:29:38;99078.28;;;17.21;100.00
8697;BME280;4385;48.848;8.924;2023-02-04T09:32:04;99083.38;;;17.23;100.00
8697;BME280;4385;48.848;8.924;2023-02-04T09:34:29;99091.03;;;17.24;100.00
8697;BME280;4385;48.848;8.924;2023-02-04T09:36:54;99089.38;;;17.26;100.00
8697;BME280;4385;48.848;8.924;2023-02-04T09:39:20;99101.25;;;17.27;100.00
8697;BME280;4385;48.848;8.924;2023-02-04T09:41:45;99098.72;;;17.29;100.00
8697;BME280;4385;48.848;8.924;2023-02-04T09:44:16;99101.28;;;17.30;100.00
8697;BME280;4385;48.848;8.924;2023-02-04T09:46:46;99105.53;;;17.28;100.00
8697;BME280;4385;48.848;8.924;2023-02-04T09:49:12;99110.63;;;17.28;100.00
8697;BME280;4385;48.848;8.924;2023-02-04T09:51:38;99112.31;;;17.26;100.00
8697;BME280;4385;48.848;8.924;2023-02-04T09:54:15;99115.69;;;17.24;100.00
8697;BME280;4385;48.848;8.924;2023-02-04T09:56:41;99113.13;;;17.22;100.00
8697;BME280;4385;48.848;8.924;2023-02-04T09:59:11;99111.38;;;17.18;100.00
8697;BME280;4385;48.848;8.924;2023-02-04T10:01:37;99107.97;;;17.16;100.00
8697;BME280;4385;48.848;8.924;2023-02-04T10:04:03;99104.56;;;17.14;100.00
8697;BME280;4385;48.848;8.924;2023-02-04T10:06:28;99107.94;;;17.13;100.00
8697;BME280;4385;48.848;8.924;2023-02-04T10:08:54;99107.94;;;17.13;100.00
8697;BME280;4385;48.848;8.924;2023-02-04T10:11:22;99104.56;;;17.14;100.00
8697;BME280;4385;48.848;8.924;2023-02-04T10:13:50;99113.91;;;17.16;100.00
8697;BME280;4385;48.848;8.924;2023-02-04T10:16:38;99109.69;;;17.17;100.00
8697;BME280;4385;48.848;8.924;2023-02-04T10:19:11;99112.25;;;17.18;100.00
8697;BME280;4385;48.848;8.924;2023-02-04T10:21:38;99116.50;;;17.21;100.00
8697;BME280;4385;48.848;8.924;2023-02-04T10:24:10;99106.31;;;17.23;100.00
8697;BME280;4385;48.848;8.924;2023-02-04T10:26:38;99106.34;;;17.24;100.00
8697;BME280;4385;48.848;8.924;2023-02-04T10:29:05;99102.13;;;17.26;100.00
8697;BME280;4385;48.848;8.924;2023-02-04T10:34:16;99111.50;;;17.32;100.00
8697;BME280;4385;48.848;8.924;2023-02-04T10:36:44;99097.06;;;17.32;100.00
8697;BME280;4385;48.848;8.924;2023-02-04T10:39:16;99101.31;;;17.33;100.00
8697;BME280;4385;48.848;8.924;2023-02-04T10:41:53;99092.00;;;17.36;100.00
8697;BME280;4385;48.848;8.924;2023-02-04T10:44:25;99095.41;;;17.36;100.00
8697;BME280;4385;48.848;8.924;2023-02-04T10:46:59;99089.44;;;17.36;100.00
8697;BME280;4385;48.848;8.924;2023-02-04T10:49:24;99097.94;;;17.35;100.00
8697;BME280;4385;48.848;8.924;2023-02-04T10:51:51;99099.63;;;17.32;100.00
8697;BME280;4385;48.848;8.924;2023-02-04T10:54:18;99094.50;;;17.31;100.00
8697;BME280;4385;48.848;8.924;2023-02-04T10:59:41;99105.50;;;17.25;100.00
8697;BME280;4385;48.848;8.924;2023-02-04T11:03:26;99113.97;;;17.24;100.00
8697;BME280;4385;48.848;8.924;2023-02-04T11:05:21;99106.31;;;17.21;100.00
8697;BME280;4385;48.848;8.924;2023-02-04T11:07:48;99108.00;;;17.19;100.00
8697;BME280;4385;48.848;8.924;2023-02-04T11:10:19;99104.59;;;17.18;100.00
8697;BME280;4385;48.848;8.924;2023-02-04T11:15:46;99098.66;;;17.21;100.00
8697;BME280;4385;48.848;8.924;2023-02-04T11:18:25;99108.06;;;17.24;100.00
8697;BME280;4385;48.848;8.924;2023-02-04T11:20:54;99106.38;;;17.27;100.00
8697;BME280;4385;48.848;8.924;2023-02-04T11:33:44;99098.81;;;17.41;100.00
8697;BME280;4385;48.848;8.924;2023-02-04T11:36:11;99098.00;;;17.41;100.00
8697;BME280;4385;48.848;8.924;2023-02-04T11:38:39;99101.38;;;17.43;100.00
8697;BME280;4385;48.848;8.924;2023-02-04T11:41:17;99108.22;;;17.44;100.00
8697;BME280;4385;48.848;8.924;2023-02-04T11:43:45;99101.38;;;17.43;100.00
8697;BME280;4385;48.848;8.924;2023-02-04T11:46:16;99102.25;;;17.42;100.00
8697;BME280;4385;48.848;8.924;2023-02-04T11:48:42;99092.03;;;17.40;100.00
8697;BME280;4385;48.848;8.924;2023-02-04T11:51:12;99102.22;;;17.39;100.00
8697;BME280;4385;48.848;8.924;2023-02-04T11:53:38;99103.06;;;17.38;100.00
8697;BME280;4385;48.848;8.924;2023-02-04T11:56:03;99096.25;;;17.37;100.00
8697;BME280;4385;48.848;8.924;2023-02-04T11:58:30;99103.03;;;17.35;100.00
8697;BME280;4385;48.848;8.924;2023-02-04T12:00:56;99102.16;;;17.31;100.00
8697;BME280;4385;48.848;8.924;2023-02-04T12:03:27;99107.25;;;17.29;100.00
8697;BME280;4385;48.848;8.924;2023-02-04T12:05:58;99112.31;;;17.28;100.00
8697;BME280;4385;48.848;8.924;2023-02-04T12:08:25;99111.47;;;17.27;100.00
8697;BME280;4385;48.848;8.924;2023-02-04T12:13:24;99114.88;;;17.28;100.00
8697;BME280;4385;48.848;8.924;2023-02-04T12:15:57;99114.88;;;17.29;100.00
8697;BME280;4385;48.848;8.924;2023-02-04T12:18:23;99109.81;;;17.31;100.00
8697;BME280;4385;48.848;8.924;2023-02-04T12:20:48;99115.78;;;17.33;100.00
8697;BME280;4385;48.848;8.924;2023-02-04T12:23:14;99113.22;;;17.35;100.00
8697;BME280;4385;48.848;8.924;2023-02-04T12:25:39;99124.28;;;17.37;100.00
8697;BME280;4385;48.848;8.924;2023-02-04T12:28:04;99109.88;;;17.39;100.00
8697;BME280;4385;48.848;8.924;2023-02-04T12:30:29;99110.75;;;17.41;100.00
8697;BME280;4385;48.848;8.924;2023-02-04T12:32:55;99115.84;;;17.41;100.00
8697;BME280;4385;48.848;8.924;2023-02-04T12:35:20;99116.69;;;17.43;100.00
8697;BME280;4385;48.848;8.924;2023-02-04T12:37:45;99115.84;;;17.44;100.00
8697;BME280;4385;48.848;8.924;2023-02-04T12:40:15;99108.22;;;17.44;100.00
8697;BME280;4385;48.848;8.924;2023-02-04T12:42:42;99110.75;;;17.44;100.00
8697;BME280;4385;48.848;8.924;2023-02-04T12:45:07;99112.44;;;17.43;100.00
8697;BME280;4385;48.848;8.924;2023-02-04T12:47:33;99110.75;;;17.44;100.00
8697;BME280;4385;48.848;8.924;2023-02-04T12:49:58;99111.59;;;17.43;100.00
8697;BME280;4385;48.848;8.924;2023-02-04T12:52:24;99113.31;;;17.42;100.00
8697;BME280;4385;48.848;8.924;2023-02-04T12:54:50;99117.53;;;17.40;100.00
8697;BME280;4385;48.848;8.924;2023-02-04T12:57:15;99114.97;;;17.39;100.00
8697;BME280;4385;48.848;8.924;2023-02-04T12:59:47;99117.47;;;17.36;100.00
8697;BME280;4385;48.848;8.924;2023-02-04T13:02:13;99108.13;;;17.33;100.00
8697;BME280;4385;48.848;8.924;2023-02-04T13:04:38;99110.66;;;17.31;100.00
8697;BME280;4385;48.848;8.924;2023-02-04T13:07:05;99116.56;;;17.30;100.00
8697;BME280;4385;48.848;8.924;2023-02-04T13:09:32;99114.88;;;17.29;100.00
8697;BME280;4385;48.848;8.924;2023-02-04T13:11:57;99119.13;;;17.30;100.00
8697;BME280;4385;48.848;8.924;2023-02-04T13:14:22;99120.88;;;17.33;100.00
8697;BME280;4385;48.848;8.924;2023-02-04T13:16:48;99120.88;;;17.35;100.00
8697;BME280;4385;48.848;8.924;2023-02-04T13:19:13;99122.56;;;17.36;100.00
8697;BME280;4385;48.848;8.924;2023-02-04T13:21:38;99116.63;;;17.37;100.00
8697;BME280;4385;48.848;8.924;2023-02-04T13:24:03;99103.91;;;17.38;100.00
8697;BME280;4385;48.848;8.924;2023-02-04T13:26:29;99112.41;;;17.40;100.00